Time;durP1;ratioP1;P1;durP2;ratioP2;P2;SDS_P1;SDS_P2;PMS_P1;PMS_P2;Temp;Humidity;BMP_temperature;BMP_pressure;BME280_temperature;BME280_humidity;BME280_pressure;Samples;Min_cycle;Max_cycle;Signal;HPM_P1;HPM_P2
2021/12/09 00:01:25;;;;;;;4.53;3.03;;;0.50;99.90;;;;;;4390384;32;20456;-69
2021/12/09 00:03:57;;;;;;;4.87;3.55;;;0.50;99.90;;;;;;4377710;32;20595;-69
2021/12/09 00:06:27;;;;;;;5.37;3.37;;;0.60;99.90;;;;;;4377818;32;20513;-69
2021/12/09 00:08:58;;;;;;;5.53;3.40;;;0.50;99.90;;;;;;4377865;32;20074;-68
2021/12/09 00:11:25;;;;;;;5.62;3.30;;;0.60;99.90;;;;;;4389703;32;20090;-69
2021/12/09 00:13:51;;;;;;;5.12;3.20;;;0.60;99.90;;;;;;4391825;32;20523;-69
2021/12/09 00:16:18;;;;;;;3.90;2.87;;;0.60;99.90;;;;;;4390054;32;20077;-68
2021/12/09 00:18:45;;;;;;;5.45;3.40;;;0.50;99.90;;;;;;4390226;32;20076;-68
2021/12/09 00:21:12;;;;;;;4.57;3.17;;;0.50;99.90;;;;;;4365798;32;20155;-69
2021/12/09 00:23:38;;;;;;;5.78;3.20;;;0.50;99.90;;;;;;4391669;32;20081;-69
2021/12/09 00:26:05;;;;;;;4.40;3.00;;;0.60;99.90;;;;;;4377778;32;20085;-69
2021/12/09 00:28:31;;;;;;;5.32;3.08;;;0.50;99.90;;;;;;4377888;32;20179;-68
2021/12/09 00:30:58;;;;;;;6.22;3.67;;;0.60;99.90;;;;;;4377620;32;20085;-68
2021/12/09 00:33:25;;;;;;;4.55;2.72;;;0.50;99.90;;;;;;4377594;32;20081;-68
2021/12/09 00:35:57;;;;;;;4.85;3.30;;;0.40;99.90;;;;;;4390866;32;20076;-68
2021/12/09 00:38:37;;;;;;;4.18;3.10;;;0.50;99.90;;;;;;4391201;32;20145;-68
2021/12/09 00:41:11;;;;;;;4.95;3.17;;;0.50;99.90;;;;;;4379091;32;20240;-68
2021/12/09 00:43:38;;;;;;;5.40;3.72;;;0.50;99.90;;;;;;4382969;32;20078;-68
2021/12/09 00:46:05;;;;;;;5.12;3.20;;;0.50;99.90;;;;;;4377726;32;20093;-67
2021/12/09 00:48:32;;;;;;;4.78;3.28;;;0.40;99.90;;;;;;4365108;32;20085;-67
2021/12/09 00:51:00;;;;;;;5.35;3.37;;;0.40;99.90;;;;;;4377139;32;20535;-67
2021/12/09 00:53:27;;;;;;;7.25;3.58;;;0.50;99.90;;;;;;4390187;32;20136;-68
2021/12/09 00:55:54;;;;;;;5.95;4.03;;;0.50;99.90;;;;;;4389734;32;20507;-69
2021/12/09 00:58:22;;;;;;;7.72;4.15;;;0.40;99.90;;;;;;4365261;32;20496;-69
2021/12/09 01:00:48;;;;;;;5.65;3.78;;;0.40;99.90;;;;;;4389940;32;20193;-68
2021/12/09 01:03:17;;;;;;;4.28;2.85;;;0.50;99.90;;;;;;4377531;32;20077;-69
2021/12/09 01:05:45;;;;;;;6.45;4.28;;;0.40;99.90;;;;;;4389582;32;20595;-69
2021/12/09 01:08:12;;;;;;;6.53;3.80;;;0.50;99.90;;;;;;4377370;32;20161;-68
2021/12/09 01:10:40;;;;;;;7.80;4.20;;;0.50;99.90;;;;;;4377067;32;20081;-68
2021/12/09 01:13:08;;;;;;;5.78;4.10;;;0.40;99.90;;;;;;4376994;32;20100;-68
2021/12/09 01:15:35;;;;;;;7.18;3.65;;;0.40;99.90;;;;;;4391544;32;20070;-69
2021/12/09 01:18:02;;;;;;;7.25;4.12;;;0.30;99.90;;;;;;4364713;32;20070;-67
2021/12/09 01:20:28;;;;;;;6.15;4.07;;;0.40;99.90;;;;;;4389734;32;20167;-69
2021/12/09 01:22:57;;;;;;;6.40;3.97;;;0.30;99.90;;;;;;4392371;32;20108;-69
2021/12/09 01:25:27;;;;;;;6.55;4.37;;;0.30;99.90;;;;;;4380370;32;20128;-68
2021/12/09 01:27:56;;;;;;;6.25;4.00;;;0.30;99.90;;;;;;4379841;32;20112;-69
2021/12/09 01:30:24;;;;;;;7.03;4.25;;;0.30;99.90;;;;;;4380250;32;20085;-67
2021/12/09 01:32:54;;;;;;;6.43;4.35;;;0.30;99.90;;;;;;4392964;32;20074;-68
2021/12/09 01:35:28;;;;;;;5.80;3.70;;;0.20;99.90;;;;;;4392662;32;20084;-69
2021/12/09 01:37:59;;;;;;;8.57;4.47;;;0.20;99.90;;;;;;4379734;32;20091;-68
2021/12/09 01:40:28;;;;;;;5.47;3.65;;;0.10;99.90;;;;;;4379773;32;20575;-69
2021/12/09 01:42:57;;;;;;;7.32;4.82;;;0.10;99.90;;;;;;4380037;32;20148;-70
2021/12/09 01:45:25;;;;;;;8.98;5.30;;;0.20;99.90;;;;;;4379729;32;20532;-70
2021/12/09 01:47:51;;;;;;;7.47;4.90;;;0.20;99.90;;;;;;4392680;32;20136;-68
2021/12/09 01:50:18;;;;;;;9.35;4.50;;;0.20;99.90;;;;;;4392237;32;20089;-68
2021/12/09 01:52:44;;;;;;;7.37;4.50;;;0.10;99.90;;;;;;4366999;32;20077;-71
2021/12/09 01:55:14;;;;;;;7.10;4.72;;;0.20;99.90;;;;;;4379606;32;20526;-66
2021/12/09 01:57:41;;;;;;;9.50;4.85;;;0.20;99.90;;;;;;4392183;32;20109;-69
2021/12/09 02:00:14;;;;;;;9.05;4.70;;;0.20;99.90;;;;;;4367231;32;20082;-68
2021/12/09 02:02:42;;;;;;;12.37;6.40;;;0.30;99.90;;;;;;4391983;32;20616;-69
2021/12/09 02:05:11;;;;;;;10.18;5.28;;;0.20;99.90;;;;;;4379424;32;20081;-69
2021/12/09 02:07:38;;;;;;;9.73;5.68;;;0.10;99.90;;;;;;4392231;32;20102;-69
2021/12/09 02:10:11;;;;;;;14.32;6.45;;;0.10;99.90;;;;;;4379735;32;20065;-68
2021/12/09 02:12:37;;;;;;;11.05;5.22;;;0.20;99.90;;;;;;4392222;32;20100;-69
2021/12/09 02:15:05;;;;;;;11.75;5.30;;;0.10;99.90;;;;;;4366995;32;20084;-68
2021/12/09 02:17:32;;;;;;;11.35;5.35;;;0.10;99.90;;;;;;4393959;32;20174;-66
2021/12/09 02:20:02;;;;;;;11.52;5.87;;;0.20;99.90;;;;;;4382747;32;20074;-67
2021/12/09 02:22:29;;;;;;;10.50;5.65;;;0.20;99.90;;;;;;4379494;32;20070;-69
2021/12/09 02:24:57;;;;;;;11.02;6.00;;;0.10;99.90;;;;;;4391867;32;20093;-69
2021/12/09 02:27:25;;;;;;;11.95;5.72;;;0.00;99.90;;;;;;4378853;32;20154;-69
2021/12/09 02:29:54;;;;;;;14.75;6.12;;;0.00;99.90;;;;;;4392038;32;20081;-69
2021/12/09 02:32:22;;;;;;;14.63;5.75;;;0.10;99.90;;;;;;4391479;32;20125;-67
2021/12/09 02:34:48;;;;;;;13.32;6.00;;;0.00;99.90;;;;;;4379057;32;20166;-69
2021/12/09 02:37:15;;;;;;;15.23;6.07;;;0.00;99.90;;;;;;4379173;32;20101;-67
2021/12/09 02:39:43;;;;;;;13.02;6.03;;;0.00;99.90;;;;;;4378979;32;20074;-67
2021/12/09 02:42:11;;;;;;;10.73;5.20;;;0.10;99.90;;;;;;4391429;32;20157;-67
2021/12/09 02:44:37;;;;;;;10.95;5.50;;;0.00;99.90;;;;;;4391202;32;20518;-67
2021/12/09 02:47:04;;;;;;;11.88;5.00;;;0.00;99.90;;;;;;4391527;32;20085;-66
2021/12/09 02:49:32;;;;;;;8.77;5.12;;;-0.10;99.90;;;;;;4378945;32;20066;-69
2021/12/09 02:52:02;;;;;;;11.05;5.87;;;-0.10;99.90;;;;;;4391249;32;20156;-70
2021/12/09 02:54:29;;;;;;;13.10;5.53;;;0.00;99.90;;;;;;4379186;32;20138;-67
2021/12/09 02:57:02;;;;;;;9.82;4.55;;;0.00;99.90;;;;;;4378603;32;20081;-68
2021/12/09 02:59:30;;;;;;;11.50;5.62;;;-0.10;99.90;;;;;;4391236;32;20499;-69
2021/12/09 03:01:57;;;;;;;9.30;4.72;;;0.00;99.90;;;;;;4391451;32;20073;-68
2021/12/09 03:04:37;;;;;;;9.93;4.43;;;0.00;99.90;;;;;;4379152;32;20077;-69
2021/12/09 03:07:16;;;;;;;10.98;5.55;;;0.00;99.90;;;;;;4390907;32;20073;-68
2021/12/09 03:09:51;;;;;;;8.30;4.90;;;-0.10;99.90;;;;;;4378399;32;20511;-67
2021/12/09 03:12:31;;;;;;;9.13;4.35;;;-0.10;99.90;;;;;;4391202;32;20078;-68
2021/12/09 03:14:58;;;;;;;9.95;5.22;;;-0.20;99.90;;;;;;4391273;32;20065;-69
2021/12/09 03:17:25;;;;;;;8.80;5.07;;;-0.20;99.90;;;;;;4378490;32;20088;-69
2021/12/09 03:19:53;;;;;;;7.43;4.40;;;-0.20;99.90;;;;;;4391656;32;20085;-67
2021/12/09 03:22:20;;;;;;;10.38;4.50;;;-0.20;99.90;;;;;;4390910;32;20149;-69
2021/12/09 03:24:48;;;;;;;10.73;5.05;;;-0.30;99.90;;;;;;4378434;32;20097;-67
2021/12/09 03:27:15;;;;;;;8.85;4.70;;;-0.30;99.90;;;;;;4365983;32;20093;-68
2021/12/09 03:29:42;;;;;;;8.15;4.50;;;-0.30;99.90;;;;;;4379734;32;20062;-69
2021/12/09 03:32:12;;;;;;;9.30;5.00;;;-0.30;99.90;;;;;;4397723;32;20073;-68
2021/12/09 03:34:41;;;;;;;10.40;4.85;;;-0.20;99.90;;;;;;4399106;32;20082;-69
2021/12/09 03:37:15;;;;;;;11.98;4.55;;;-0.20;99.90;;;;;;4383433;32;20073;-68
2021/12/09 03:39:42;;;;;;;6.47;2.87;;;-0.20;99.90;;;;;;4391379;32;20158;-68
2021/12/09 03:42:13;;;;;;;10.45;5.00;;;-0.40;99.90;;;;;;4391005;32;20162;-66
2021/12/09 03:44:41;;;;;;;8.93;4.85;;;-0.30;99.90;;;;;;4390072;32;20165;-68
2021/12/09 03:47:11;;;;;;;8.30;4.12;;;-0.20;99.90;;;;;;4378673;32;20081;-67
2021/12/09 03:49:38;;;;;;;11.88;4.40;;;-0.30;99.90;;;;;;4378118;32;20074;-69
2021/12/09 03:52:06;;;;;;;9.73;5.32;;;-0.30;99.90;;;;;;4378570;32;20131;-67
2021/12/09 03:54:32;;;;;;;5.85;3.53;;;-0.30;99.90;;;;;;4383769;32;20059;-69
2021/12/09 03:56:59;;;;;;;8.13;4.03;;;-0.40;99.90;;;;;;4390879;32;20089;-66
2021/12/09 03:59:26;;;;;;;8.00;4.55;;;-0.40;99.90;;;;;;4377859;32;20074;-68
2021/12/09 04:01:54;;;;;;;10.82;4.32;;;-0.40;99.90;;;;;;4378006;32;20166;-68
2021/12/09 04:04:22;;;;;;;10.60;4.60;;;-0.50;99.90;;;;;;4390617;32;20078;-67
2021/12/09 04:06:48;;;;;;;8.07;4.43;;;-0.40;99.90;;;;;;4365045;32;20082;-69
2021/12/09 04:09:19;;;;;;;11.52;4.45;;;-0.50;99.90;;;;;;4391427;32;20077;-68
2021/12/09 04:11:46;;;;;;;4.62;3.10;;;-0.50;99.90;;;;;;4365077;32;20467;-69
2021/12/09 04:14:13;;;;;;;5.45;3.40;;;-0.70;99.90;;;;;;4377646;32;20082;-69
2021/12/09 04:16:40;;;;;;;8.10;4.22;;;-0.70;99.90;;;;;;4378095;32;20078;-68
2021/12/09 04:19:10;;;;;;;8.30;3.55;;;-0.60;99.90;;;;;;4377645;32;20101;-69
2021/12/09 04:21:37;;;;;;;9.32;4.15;;;-0.60;99.90;;;;;;4389996;32;20077;-68
2021/12/09 04:24:07;;;;;;;7.37;3.92;;;-0.60;99.90;;;;;;4378134;32;20467;-69
2021/12/09 04:26:40;;;;;;;8.02;4.18;;;-0.70;99.90;;;;;;4389734;32;20518;-68
2021/12/09 04:29:09;;;;;;;8.57;4.22;;;-0.70;99.90;;;;;;4390427;32;20104;-68
2021/12/09 04:31:36;;;;;;;9.07;4.10;;;-0.70;99.90;;;;;;4377408;32;20540;-67
2021/12/09 04:34:04;;;;;;;5.93;2.62;;;-0.60;99.90;;;;;;4378221;32;20077;-67
2021/12/09 04:36:31;;;;;;;10.98;4.10;;;-0.70;99.90;;;;;;4377702;32;20088;-69
2021/12/09 04:38:57;;;;;;;7.47;4.10;;;-0.60;99.90;;;;;;4377459;32;20127;-69
2021/12/09 04:41:24;;;;;;;8.73;4.15;;;-0.60;99.90;;;;;;4377734;32;20073;-69
2021/12/09 04:43:51;;;;;;;7.47;3.75;;;-0.60;99.90;;;;;;4365322;32;20094;-69
2021/12/09 04:46:17;;;;;;;7.70;4.03;;;-0.70;99.90;;;;;;4390150;32;20074;-68
2021/12/09 04:48:44;;;;;;;6.82;3.85;;;-0.70;99.90;;;;;;4377233;32;20081;-68
2021/12/09 04:51:12;;;;;;;8.63;3.83;;;-0.70;99.90;;;;;;4377077;32;20085;-68
2021/12/09 04:53:38;;;;;;;6.12;3.85;;;-0.70;99.90;;;;;;4377230;32;20092;-67
2021/12/09 04:56:05;;;;;;;6.47;3.50;;;-0.70;99.90;;;;;;4377603;32;20093;-67
2021/12/09 04:58:32;;;;;;;4.70;2.67;;;-0.80;99.90;;;;;;4392748;32;20512;-67
2021/12/09 05:01:02;;;;;;;5.55;3.08;;;-0.80;99.90;;;;;;4380631;32;20093;-68
2021/12/09 05:03:28;;;;;;;5.43;3.15;;;-0.70;99.90;;;;;;4393038;32;20089;-67
2021/12/09 05:05:56;;;;;;;7.72;3.67;;;-0.80;99.90;;;;;;4380470;32;20081;-68
2021/12/09 05:08:27;;;;;;;7.80;3.53;;;-0.80;99.90;;;;;;4380660;32;20090;-69
2021/12/09 05:11:07;;;;;;;7.12;3.53;;;-0.60;99.90;;;;;;4392531;32;20093;-66
2021/12/09 05:13:37;;;;;;;4.15;2.87;;;-0.70;99.90;;;;;;4369055;32;20101;-67
2021/12/09 05:16:08;;;;;;;1.90;1.30;;;-0.70;99.90;;;;;;4393268;32;20491;-67
2021/12/09 05:18:38;;;;;;;4.25;2.65;;;-0.80;99.90;;;;;;4380280;32;20073;-68
2021/12/09 05:21:07;;;;;;;5.78;3.25;;;-0.80;99.90;;;;;;4392490;32;20170;-69
2021/12/09 05:23:35;;;;;;;5.37;3.00;;;-0.80;99.90;;;;;;4380192;32;20078;-67
2021/12/09 05:26:02;;;;;;;5.28;2.90;;;-0.80;99.90;;;;;;4392644;32;20092;-67
2021/12/09 05:28:32;;;;;;;8.93;3.55;;;-0.90;99.90;;;;;;4384940;32;20092;-67
2021/12/09 05:33:45;;;;;;;8.57;3.72;;;-0.90;99.90;;;;;;4392864;32;20085;-67
2021/12/09 05:36:12;;;;;;;7.10;3.90;;;-0.80;99.90;;;;;;4392704;32;20101;-68
2021/12/09 05:38:39;;;;;;;7.03;3.53;;;-0.90;99.90;;;;;;4380238;32;20077;-69
2021/12/09 05:41:07;;;;;;;6.72;3.25;;;-0.90;99.90;;;;;;4366718;32;20089;-67
2021/12/09 05:43:36;;;;;;;8.23;3.40;;;-0.90;99.90;;;;;;4387719;32;20512;-70
2021/12/09 05:46:03;;;;;;;5.15;3.30;;;-0.90;99.90;;;;;;4372849;32;20081;-66
2021/12/09 05:48:31;;;;;;;6.20;2.85;;;-1.00;99.90;;;;;;4381128;32;20106;-64
2021/12/09 05:50:58;;;;;;;7.00;3.17;;;-1.00;99.90;;;;;;4366356;32;20086;-66
2021/12/09 05:53:24;;;;;;;6.43;3.75;;;-0.80;99.90;;;;;;4379585;32;20521;-65
2021/12/09 05:55:51;;;;;;;6.55;3.95;;;-0.80;99.90;;;;;;4393189;32;20136;-63
2021/12/09 05:58:20;;;;;;;7.85;3.65;;;-0.80;99.90;;;;;;4392233;32;20097;-65
2021/12/09 06:00:48;;;;;;;6.05;3.55;;;-0.90;99.90;;;;;;4391932;32;20425;-67
2021/12/09 06:03:19;;;;;;;7.97;3.92;;;-0.90;99.90;;;;;;4367439;32;20091;-64
2021/12/09 06:05:47;;;;;;;6.47;3.00;;;-0.90;99.90;;;;;;4391819;32;20065;-64
2021/12/09 06:08:13;;;;;;;7.00;3.75;;;-1.00;99.90;;;;;;4378903;32;20518;-64
2021/12/09 06:10:40;;;;;;;6.15;3.70;;;-0.90;99.90;;;;;;4392505;32;20105;-63
2021/12/09 06:13:07;;;;;;;9.90;3.42;;;-0.90;99.90;;;;;;4378813;32;20070;-66
2021/12/09 06:15:34;;;;;;;8.30;3.83;;;-1.00;99.90;;;;;;4384111;32;20443;-65
2021/12/09 06:18:00;;;;;;;5.07;3.00;;;-1.00;99.90;;;;;;4383054;32;20551;-65
2021/12/09 06:20:27;;;;;;;5.68;2.97;;;-1.10;99.90;;;;;;4384507;32;20172;-65
2021/12/09 06:22:54;;;;;;;8.98;3.67;;;-1.10;99.90;;;;;;4367136;32;20111;-63
2021/12/09 06:25:21;;;;;;;5.65;3.10;;;-1.10;99.90;;;;;;4391024;32;20077;-64
2021/12/09 06:27:54;;;;;;;5.62;3.08;;;-1.20;99.90;;;;;;4391989;32;20155;-64
2021/12/09 06:30:22;;;;;;;7.68;4.03;;;-1.10;99.90;;;;;;4391484;32;20445;-64
2021/12/09 06:32:48;;;;;;;5.78;3.72;;;-1.00;99.90;;;;;;4392167;32;20502;-63
2021/12/09 06:35:16;;;;;;;5.25;3.25;;;-1.00;99.90;;;;;;4391738;32;20073;-63
2021/12/09 06:37:45;;;;;;;4.57;2.08;;;-1.00;99.90;;;;;;4391456;32;20074;-63
2021/12/09 06:40:15;;;;;;;5.85;3.33;;;-1.10;99.90;;;;;;4379029;32;20070;-65
2021/12/09 06:42:43;;;;;;;8.75;3.40;;;-1.20;99.90;;;;;;4374935;32;20074;-64
2021/12/09 06:45:12;;;;;;;6.07;3.58;;;-1.00;99.90;;;;;;4377536;32;20174;-63
2021/12/09 06:47:39;;;;;;;6.60;3.45;;;-1.00;99.90;;;;;;4365873;32;20086;-63
2021/12/09 06:50:09;;;;;;;6.93;3.60;;;-1.10;99.90;;;;;;4391466;32;20081;-63
2021/12/09 06:52:36;;;;;;;7.78;3.35;;;-0.90;99.90;;;;;;4362916;32;20486;-64
2021/12/09 06:55:04;;;;;;;5.75;3.45;;;-1.00;99.90;;;;;;4379115;32;20054;-64
2021/12/09 06:57:31;;;;;;;5.75;3.40;;;-1.00;99.90;;;;;;4378591;32;20187;-68
2021/12/09 06:59:57;;;;;;;7.55;3.50;;;-0.90;99.90;;;;;;4372945;32;20054;-68
2021/12/09 07:02:24;;;;;;;5.35;2.97;;;-0.90;99.90;;;;;;4353215;32;20086;-64
2021/12/09 07:04:51;;;;;;;11.68;3.62;;;-0.90;99.90;;;;;;4387777;32;20076;-67
2021/12/09 07:07:17;;;;;;;8.25;3.83;;;-0.90;99.90;;;;;;4393812;32;20077;-67
2021/12/09 07:09:46;;;;;;;4.50;2.78;;;-0.70;99.90;;;;;;4378049;32;20066;-67
2021/12/09 07:12:13;;;;;;;5.35;3.12;;;-0.80;99.90;;;;;;4391134;32;20062;-68
2021/12/09 07:14:40;;;;;;;5.37;3.35;;;-1.00;99.90;;;;;;4390947;32;20069;-64
2021/12/09 07:17:06;;;;;;;5.90;3.17;;;-0.80;99.90;;;;;;4376910;32;20083;-67
2021/12/09 07:19:33;;;;;;;6.50;3.37;;;-0.70;99.90;;;;;;4378338;32;20069;-65
2021/12/09 07:22:00;;;;;;;7.20;3.30;;;-0.70;99.90;;;;;;4391055;32;20137;-65
2021/12/09 07:24:27;;;;;;;5.15;3.33;;;-0.80;99.90;;;;;;4391296;32;20081;-65
2021/12/09 07:26:53;;;;;;;5.78;3.33;;;-0.50;99.90;;;;;;4392496;32;20106;-64
2021/12/09 07:29:20;;;;;;;6.32;3.37;;;-0.70;99.90;;;;;;4392162;32;20086;-68
2021/12/09 07:31:46;;;;;;;5.47;3.45;;;-0.60;99.90;;;;;;4386269;32;20093;-66
2021/12/09 07:34:12;;;;;;;7.10;3.47;;;-0.50;99.90;;;;;;4371069;32;20073;-67
2021/12/09 07:36:39;;;;;;;5.95;3.30;;;-0.50;99.90;;;;;;4381408;32;20078;-66
2021/12/09 07:39:05;;;;;;;4.65;2.78;;;-0.40;99.90;;;;;;4365924;32;20662;-69
2021/12/09 07:41:32;;;;;;;5.97;3.40;;;-0.90;99.90;;;;;;4370621;32;20166;-67
2021/12/09 07:44:02;;;;;;;4.55;2.95;;;-0.80;99.90;;;;;;4365736;32;20463;-70
2021/12/09 07:46:29;;;;;;;5.47;3.60;;;-0.50;99.90;;;;;;4388430;32;20073;-66
2021/12/09 07:48:56;;;;;;;4.95;3.10;;;-0.70;99.90;;;;;;4367557;32;20097;-67
2021/12/09 07:51:23;;;;;;;7.72;3.28;;;-0.70;99.90;;;;;;4375286;32;20078;-64
2021/12/09 07:53:49;;;;;;;4.28;2.87;;;-0.80;99.90;;;;;;4374385;32;20085;-65
2021/12/09 07:56:16;;;;;;;5.35;3.17;;;-0.70;99.90;;;;;;4390255;32;20070;-66
2021/12/09 07:58:42;;;;;;;5.65;3.12;;;-0.70;99.90;;;;;;4359720;32;20086;-67
2021/12/09 08:01:10;;;;;;;5.70;3.03;;;-0.60;99.90;;;;;;4377504;32;20105;-67
2021/12/09 08:03:38;;;;;;;3.95;2.75;;;-0.80;99.90;;;;;;4374723;32;20181;-66
2021/12/09 08:06:05;;;;;;;4.87;2.80;;;-0.70;99.90;;;;;;4381913;32;20083;-66
2021/12/09 08:08:32;;;;;;;5.05;3.03;;;-0.80;99.90;;;;;;4373151;32;20089;-65
2021/12/09 08:10:59;;;;;;;4.15;2.35;;;-0.50;99.90;;;;;;4367962;32;20133;-65
2021/12/09 08:13:25;;;;;;;4.95;2.47;;;-0.60;99.90;;;;;;4379451;32;20500;-65
2021/12/09 08:15:54;;;;;;;4.25;2.78;;;-0.70;99.90;;;;;;4361241;32;20065;-66
2021/12/09 08:20:51;;;;;;;4.78;2.80;;;-0.60;99.90;;;;;;4378964;32;20074;-68
2021/12/09 08:23:18;;;;;;;6.45;3.00;;;-0.60;99.90;;;;;;4388896;32;20079;-65
2021/12/09 08:25:47;;;;;;;6.25;3.10;;;-0.70;99.90;;;;;;4389651;32;20534;-63
2021/12/09 08:28:14;;;;;;;5.05;2.83;;;-0.70;99.90;;;;;;4387219;32;20504;-66
2021/12/09 08:30:41;;;;;;;7.75;2.83;;;-0.60;99.90;;;;;;4391433;32;20530;-65
2021/12/09 08:33:08;;;;;;;3.08;1.65;;;-0.70;99.90;;;;;;4361951;32;20101;-63
2021/12/09 08:35:36;;;;;;;6.62;3.40;;;-0.60;99.90;;;;;;4373616;32;20530;-67
2021/12/09 08:38:05;;;;;;;8.95;3.50;;;-0.40;99.90;;;;;;4383814;32;20146;-66
2021/12/09 08:40:33;;;;;;;9.77;3.35;;;-0.50;99.90;;;;;;4388917;32;20082;-67
2021/12/09 08:43:00;;;;;;;5.87;3.17;;;-0.40;99.90;;;;;;4382404;32;20578;-65
2021/12/09 08:45:28;;;;;;;11.27;3.22;;;-0.30;99.90;;;;;;4370809;32;20066;-63
2021/12/09 08:47:54;;;;;;;5.43;3.05;;;-0.30;99.90;;;;;;4370919;32;20612;-62
2021/12/09 08:50:24;;;;;;;8.05;3.60;;;-0.20;99.90;;;;;;4369915;32;20074;-65
2021/12/09 08:52:53;;;;;;;7.82;3.33;;;-0.40;99.90;;;;;;4369267;32;20081;-65
2021/12/09 08:55:22;;;;;;;4.50;2.53;;;-0.30;99.90;;;;;;4370109;32;20077;-67
2021/12/09 08:57:48;;;;;;;5.22;3.25;;;-0.50;99.90;;;;;;4378875;32;20198;-68
2021/12/09 09:00:17;;;;;;;8.07;3.53;;;-0.30;99.90;;;;;;4372814;32;20066;-70
2021/12/09 09:02:46;;;;;;;5.93;3.25;;;-0.40;99.90;;;;;;4381696;32;20081;-68
2021/12/09 09:05:14;;;;;;;7.47;3.33;;;-0.30;99.90;;;;;;4382376;32;20089;-65
2021/12/09 09:07:47;;;;;;;5.07;2.97;;;-0.40;99.90;;;;;;4371355;32;20081;-64
2021/12/09 09:10:18;;;;;;;7.05;3.70;;;-0.30;99.90;;;;;;4384457;32;20074;-64
2021/12/09 09:12:46;;;;;;;5.03;3.10;;;-0.20;99.90;;;;;;4379373;32;20080;-62
2021/12/09 09:15:15;;;;;;;8.38;3.08;;;-0.20;99.90;;;;;;4379770;32;20078;-70
2021/12/09 09:17:43;;;;;;;6.10;3.17;;;-0.30;99.90;;;;;;4384722;32;20186;-68
2021/12/09 09:20:13;;;;;;;7.75;3.08;;;-0.30;99.90;;;;;;4366086;32;20177;-65
2021/12/09 09:22:41;;;;;;;5.03;3.12;;;-0.30;99.90;;;;;;4385397;32;20077;-64
2021/12/09 09:25:14;;;;;;;2.80;1.95;;;-0.30;99.90;;;;;;4379980;32;20081;-67
2021/12/09 09:27:41;;;;;;;6.85;3.20;;;-0.30;99.90;;;;;;4374350;32;20166;-67
2021/12/09 09:30:09;;;;;;;6.10;3.20;;;-0.20;99.90;;;;;;4378628;32;20066;-67
2021/12/09 09:32:35;;;;;;;7.80;2.97;;;-0.20;99.90;;;;;;4384034;32;20081;-69
2021/12/09 09:35:02;;;;;;;6.03;3.28;;;-0.20;99.90;;;;;;4354455;32;20170;-68
2021/12/09 09:37:28;;;;;;;4.25;2.47;;;-0.20;99.90;;;;;;4383169;32;20062;-66
2021/12/09 09:39:55;;;;;;;4.70;2.90;;;-0.30;99.90;;;;;;4369631;32;20129;-67
2021/12/09 09:42:54;;;;;;;6.00;3.30;;;-0.40;99.90;;;;;;4385620;32;20094;-66
2021/12/09 09:45:17;;;;;;;6.15;3.15;;;-0.20;99.90;;;;;;4390606;32;20193;-67
2021/12/09 09:47:44;;;;;;;7.68;3.60;;;-0.20;99.90;;;;;;4377874;32;20081;-67
2021/12/09 09:50:12;;;;;;;5.55;3.22;;;-0.20;99.90;;;;;;4366440;32;20516;-68
2021/12/09 09:52:40;;;;;;;7.12;3.10;;;-0.10;99.90;;;;;;4393904;32;20135;-67
2021/12/09 09:55:10;;;;;;;5.43;3.12;;;0.00;99.90;;;;;;4367727;32;20089;-69
2021/12/09 09:57:37;;;;;;;6.68;3.30;;;0.00;99.90;;;;;;4392542;32;20069;-64
2021/12/09 10:00:10;;;;;;;4.35;2.80;;;-0.30;99.90;;;;;;4390688;32;20509;-63
2021/12/09 10:02:37;;;;;;;5.03;3.37;;;-0.10;99.90;;;;;;4372539;32;20063;-63
2021/12/09 10:05:07;;;;;;;5.57;2.83;;;-0.20;99.90;;;;;;4375935;32;20063;-68
2021/12/09 10:07:35;;;;;;;6.60;2.95;;;0.00;99.90;;;;;;4364385;32;20515;-70
2021/12/09 10:10:08;;;;;;;7.55;3.22;;;0.00;99.90;;;;;;4367037;32;20082;-72
2021/12/09 10:12:35;;;;;;;5.00;2.90;;;0.00;99.90;;;;;;4366286;32;20113;-67
2021/12/09 10:15:02;;;;;;;8.18;3.40;;;-0.20;99.90;;;;;;4379447;32;20085;-67
2021/12/09 10:17:28;;;;;;;9.35;3.72;;;0.00;99.90;;;;;;4379379;32;20113;-69
2021/12/09 10:19:59;;;;;;;6.03;3.30;;;0.00;99.90;;;;;;4374419;32;20090;-71
2021/12/09 10:22:32;;;;;;;4.85;3.10;;;-0.10;99.90;;;;;;4390314;32;20598;-71
2021/12/09 10:25:01;;;;;;;7.47;3.08;;;-0.10;99.90;;;;;;4379601;32;20088;-71
2021/12/09 10:27:33;;;;;;;7.60;3.10;;;-0.20;99.90;;;;;;4363009;32;20098;-69
2021/12/09 10:30:12;;;;;;;8.32;3.87;;;-0.10;99.90;;;;;;4388404;32;20093;-64
2021/12/09 10:32:40;;;;;;;5.03;3.08;;;0.00;99.90;;;;;;4385056;32;20113;-63
2021/12/09 10:35:15;;;;;;;3.87;2.08;;;0.00;99.90;;;;;;4385416;32;20113;-68
2021/12/09 10:37:44;;;;;;;5.47;3.03;;;-0.20;99.90;;;;;;4374977;32;20070;-65
2021/12/09 10:40:11;;;;;;;4.75;2.95;;;0.00;99.90;;;;;;4386854;32;20077;-66
2021/12/09 10:42:47;;;;;;;5.45;3.30;;;-0.10;99.90;;;;;;4373142;32;20433;-68
2021/12/09 10:45:13;;;;;;;;;;;0.00;99.90;;;;;;4368350;32;20596;-67
2021/12/09 10:47:54;;;;;;;6.62;3.40;;;0.00;99.90;;;;;;4386599;32;19961;-65
2021/12/09 10:50:41;;;;;;;6.57;3.40;;;-0.10;99.90;;;;;;4396918;32;20074;-71
2021/12/09 10:55:57;;;;;;;5.93;3.37;;;-0.20;99.90;;;;;;4385753;32;20062;-73
2021/12/09 10:58:31;;;;;;;6.50;3.53;;;-0.10;99.90;;;;;;4383486;32;20074;-68
2021/12/09 11:01:05;;;;;;;5.80;2.90;;;0.00;99.90;;;;;;4374084;32;20161;-68
2021/12/09 11:03:44;;;;;;;5.90;3.37;;;0.10;99.90;;;;;;4374643;32;20120;-72
2021/12/09 11:06:28;;;;;;;8.50;3.37;;;0.10;99.90;;;;;;4385521;32;20183;-72
2021/12/09 11:08:59;;;;;;;6.22;3.05;;;0.10;99.90;;;;;;4382929;32;20085;-69
2021/12/09 11:11:33;;;;;;;8.02;3.30;;;0.10;99.90;;;;;;4371660;32;20069;-70
2021/12/09 11:14:13;;;;;;;6.93;3.00;;;0.10;99.90;;;;;;4361274;32;20085;-67
2021/12/09 11:16:43;;;;;;;5.90;3.30;;;0.10;99.90;;;;;;4387224;32;20089;-71
2021/12/09 11:19:13;;;;;;;4.37;3.03;;;0.10;99.90;;;;;;4368170;32;20135;-72
2021/12/09 11:21:54;;;;;;;4.05;2.75;;;0.10;99.90;;;;;;4384509;32;20080;-66
2021/12/09 11:24:22;;;;;;;10.23;3.53;;;0.10;99.90;;;;;;4376369;32;20077;-68
2021/12/09 11:27:01;;;;;;;6.82;3.55;;;0.00;99.90;;;;;;4382518;32;20590;-70
2021/12/09 11:29:30;;;;;;;5.45;3.25;;;0.00;99.90;;;;;;4387253;32;20161;-68
2021/12/09 11:34:53;;;;;;;6.53;3.15;;;0.00;99.90;;;;;;4388377;32;20066;-65
2021/12/09 11:40:20;;;;;;;5.20;3.08;;;0.00;99.90;;;;;;4367292;32;20166;-64
2021/12/09 11:42:55;;;;;;;7.40;3.45;;;0.00;99.90;;;;;;4351372;32;20181;-70
2021/12/09 11:45:36;;;;;;;6.30;2.97;;;0.00;99.90;;;;;;4376481;32;20080;-73
2021/12/09 11:48:05;;;;;;;5.50;2.85;;;0.10;99.90;;;;;;4382601;32;20081;-72
2021/12/09 11:50:36;;;;;;;4.82;2.33;;;0.00;99.90;;;;;;4385420;32;20086;-68
2021/12/09 11:53:08;;;;;;;7.07;2.97;;;-0.10;99.90;;;;;;4366780;32;20507;-72
2021/12/09 11:55:41;;;;;;;5.12;2.78;;;0.00;99.90;;;;;;4381095;32;20101;-71
2021/12/09 12:13:03;;;;;;;4.12;2.50;;;0.10;99.90;;;;;;4373438;32;20112;-70
2021/12/09 12:15:47;;;;;;;6.80;3.22;;;0.10;99.90;;;;;;4382873;32;20256;-71
2021/12/09 12:24:06;;;;;;;4.75;2.80;;;0.00;99.90;;;;;;4379409;32;20065;-75
2021/12/09 12:26:50;;;;;;;4.68;2.70;;;0.10;99.90;;;;;;4371318;32;20128;-76
2021/12/09 12:35:13;;;;;;;4.37;2.22;;;0.10;99.90;;;;;;4384334;32;20554;-69
2021/12/09 12:38:02;;;;;;;7.85;3.20;;;0.00;99.90;;;;;;4360921;32;20086;-74
2021/12/09 12:41:06;;;;;;;5.75;2.85;;;0.00;99.90;;;;;;4380413;32;20098;-67
2021/12/09 12:43:41;;;;;;;5.97;3.05;;;0.40;99.90;;;;;;4379807;32;20116;-74
2021/12/09 12:51:21;;;;;;;5.43;2.40;;;0.10;99.90;;;;;;4380183;32;20081;-70
2021/12/09 12:54:22;;;;;;;5.75;2.90;;;0.00;99.90;;;;;;4376291;32;20105;-73
2021/12/09 12:56:56;;;;;;;7.32;3.28;;;0.10;99.90;;;;;;4383377;32;20172;-70
2021/12/09 12:59:38;;;;;;;5.53;2.83;;;0.20;99.90;;;;;;4382646;32;20124;-71
2021/12/09 13:05:01;;;;;;;6.12;3.33;;;0.30;99.90;;;;;;4394361;32;20147;-70
2021/12/09 13:11:08;;;;;;;4.00;2.78;;;0.20;99.90;;;;;;4378495;32;20151;-71
2021/12/09 13:14:21;;;;;;;5.80;2.95;;;0.20;99.90;;;;;;4371578;32;20078;-68
2021/12/09 13:17:07;;;;;;;8.10;3.40;;;0.20;99.90;;;;;;4374545;32;20112;-75
2021/12/09 13:19:51;;;;;;;6.00;3.72;;;0.10;99.90;;;;;;4385696;32;20508;-73
2021/12/09 13:22:25;;;;;;;4.87;3.20;;;0.00;99.90;;;;;;4363012;32;20066;-74
2021/12/09 13:25:19;;;;;;;5.22;2.97;;;0.20;99.90;;;;;;4381627;32;20081;-72
2021/12/09 13:28:00;;;;;;;4.32;2.62;;;0.20;99.90;;;;;;4384442;32;20165;-73
2021/12/09 13:30:57;;;;;;;4.90;3.40;;;0.20;99.90;;;;;;4384343;32;20104;-76
2021/12/09 13:36:23;;;;;;;4.05;3.00;;;0.10;99.90;;;;;;4383836;32;19973;-71
2021/12/09 13:55:20;;;;;;;4.43;2.83;;;0.10;99.90;;;;;;4386513;32;20093;-71
2021/12/09 13:57:59;;;;;;;5.40;3.05;;;0.20;99.90;;;;;;4386110;32;20185;-73
2021/12/09 14:00:25;;;;;;;8.63;5.32;;;0.20;99.90;;;;;;4374788;32;20132;-74
2021/12/09 14:02:55;;;;;;;5.03;3.40;;;0.20;99.90;;;;;;4387934;32;20153;-72
2021/12/09 14:05:23;;;;;;;4.82;3.00;;;0.20;99.90;;;;;;4384968;32;20317;-68
2021/12/09 14:07:59;;;;;;;4.40;3.12;;;0.00;99.90;;;;;;4381751;32;20098;-70
2021/12/09 14:10:30;;;;;;;11.60;6.18;;;0.20;99.90;;;;;;4371360;32;20117;-71
2021/12/09 14:13:05;;;;;;;4.90;2.92;;;0.30;99.90;;;;;;4387326;32;20097;-69
2021/12/09 14:15:39;;;;;;;5.50;3.08;;;0.10;99.90;;;;;;4378601;32;20575;-72